createdAt,value
2022-08-18T00:02:34.912Z,100052
2022-08-18T00:08:29.136Z,100064
2022-08-18T00:14:27.443Z,100048
2022-08-18T00:20:18.631Z,100065
2022-08-18T00:26:12.442Z,100055
2022-08-18T00:32:04.369Z,100043
2022-08-18T00:37:57.151Z,100047
2022-08-18T00:43:49.030Z,100054
2022-08-18T00:49:39.968Z,100058
2022-08-18T00:55:31.601Z,100055
2022-08-18T01:01:24.730Z,100072
2022-08-18T01:07:15.614Z,100063
2022-08-18T01:13:09.336Z,100079
2022-08-18T01:19:01.753Z,100079
2022-08-18T01:24:54.882Z,100065
2022-08-18T01:30:45.840Z,100065
2022-08-18T01:36:37.675Z,100053
2022-08-18T01:42:30.435Z,100068
2022-08-18T01:48:24.336Z,100073
2022-08-18T01:54:16.714Z,100082
2022-08-18T02:00:14.140Z,100084
2022-08-18T02:06:09.622Z,100072
2022-08-18T02:12:03.600Z,100080
2022-08-18T02:17:56.934Z,100075
2022-08-18T02:23:57.654Z,100061
2022-08-18T02:29:49.723Z,100059
2022-08-18T02:35:40.678Z,100071
2022-08-18T02:41:32.989Z,100066
2022-08-18T02:47:24.791Z,100074
2022-08-18T02:53:22.081Z,100076
2022-08-18T02:59:13.870Z,100078
2022-08-18T03:05:06.841Z,100069
2022-08-18T03:11:03.863Z,100080
2022-08-18T03:16:57.750Z,100074
2022-08-18T03:22:48.725Z,100077
2022-08-18T03:28:39.810Z,100074
2022-08-18T03:34:28.129Z,100081
2022-08-18T03:40:20.143Z,100075
2022-08-18T03:46:09.491Z,100077
2022-08-18T03:52:01.525Z,100082
2022-08-18T03:57:54.974Z,100088
2022-08-18T04:03:46.297Z,100085
2022-08-18T04:09:40.896Z,100085
2022-08-18T04:15:31.632Z,100090
2022-08-18T04:21:23.500Z,100083
2022-08-18T04:27:15.945Z,100084
2022-08-18T04:33:08.506Z,100088
2022-08-18T04:39:02.512Z,100094
2022-08-18T04:44:54.021Z,100092
2022-08-18T04:50:45.836Z,100093
2022-08-18T04:56:36.983Z,100084
2022-08-18T05:02:28.568Z,100093
2022-08-18T05:08:20.064Z,100100
2022-08-18T05:14:08.657Z,100107
2022-08-18T05:20:02.302Z,100102
2022-08-18T05:25:56.281Z,100107
2022-08-18T05:31:48.891Z,100104
2022-08-18T05:37:40.198Z,100108
2022-08-18T05:43:33.585Z,100128
2022-08-18T05:49:33.497Z,100123
2022-08-18T05:55:24.249Z,100129
2022-08-18T06:01:15.252Z,100135
2022-08-18T06:07:05.321Z,100144
2022-08-18T06:12:56.397Z,100147
2022-08-18T06:18:47.875Z,100144
2022-08-18T06:24:38.001Z,100141
2022-08-18T06:30:28.705Z,100153
2022-08-18T06:36:23.185Z,100150
2022-08-18T06:42:17.084Z,100157
2022-08-18T06:48:18.647Z,100170
2022-08-18T06:54:07.481Z,100163
2022-08-18T06:59:59.086Z,100153
2022-08-18T07:05:49.493Z,100159
2022-08-18T07:11:42.818Z,100145
2022-08-18T07:17:46.967Z,100148
2022-08-18T07:23:37.921Z,100144
2022-08-18T07:29:28.132Z,100149
2022-08-18T07:35:18.844Z,100150
2022-08-18T07:41:08.981Z,100161
2022-08-18T07:46:59.388Z,100160
2022-08-18T07:52:53.633Z,100185
2022-08-18T07:58:45.104Z,100207
2022-08-18T08:04:39.566Z,100211
2022-08-18T08:10:31.859Z,100213
2022-08-18T08:16:26.137Z,100218
2022-08-18T08:22:19.148Z,100219
2022-08-18T08:28:12.052Z,100216
2022-08-18T08:34:12.536Z,100222
2022-08-18T08:40:05.552Z,100224
2022-08-18T08:45:58.560Z,100228
2022-08-18T08:51:51.766Z,100237
2022-08-18T08:57:46.846Z,100227
2022-08-18T09:03:38.634Z,100223
2022-08-18T09:09:29.245Z,100233
2022-08-18T09:15:18.403Z,100218
2022-08-18T09:21:09.387Z,100220
2022-08-18T09:27:01.282Z,100205
2022-08-18T09:32:55.368Z,100213
2022-08-18T09:38:48.697Z,100221
2022-08-18T09:44:47.085Z,100222
2022-08-18T09:58:06.075Z,100233
2022-08-18T10:04:39.282Z,100229
2022-08-18T10:11:11.074Z,100219
2022-08-18T10:17:36.386Z,100231
2022-08-18T10:31:15.310Z,100220
2022-08-18T10:37:35.559Z,100201
2022-08-18T10:50:40.141Z,100186
2022-08-18T11:23:39.992Z,100162
2022-08-18T11:30:01.580Z,100155
2022-08-18T11:36:49.871Z,100170
2022-08-18T11:49:36.234Z,100134
2022-08-18T13:04:54.515Z,100131
2022-08-18T13:10:56.361Z,100114
2022-08-18T13:17:34.179Z,100123
2022-08-18T13:23:31.603Z,100107
2022-08-18T13:29:26.867Z,100100
2022-08-18T13:35:25.716Z,100076
2022-08-18T13:41:35.909Z,100105
2022-08-18T13:47:39.877Z,100106
2022-08-18T13:53:37.809Z,100114
2022-08-18T14:00:32.439Z,100120
2022-08-18T14:12:34.411Z,100112
2022-08-18T14:18:33.631Z,100092
2022-08-18T14:24:28.252Z,100094
2022-08-18T14:30:24.548Z,100086
2022-08-18T14:36:14.278Z,100083
2022-08-18T14:42:13.865Z,100091
2022-08-18T14:48:13.311Z,100096
2022-08-18T14:54:05.131Z,100092
2022-08-18T15:00:08.008Z,100081
2022-08-18T15:06:09.513Z,100065
2022-08-18T15:12:18.983Z,100065
2022-08-18T15:18:15.003Z,100062
2022-08-18T15:24:23.446Z,100078
2022-08-18T15:30:22.941Z,100072
2022-08-18T15:36:29.108Z,100078
2022-08-18T15:42:20.033Z,100078
2022-08-18T15:48:15.915Z,100079
2022-08-18T15:54:07.668Z,100069
2022-08-18T16:00:01.997Z,100067
2022-08-18T16:05:55.655Z,100048
2022-08-18T16:11:46.175Z,100055
2022-08-18T16:17:35.837Z,100049
2022-08-18T16:23:25.098Z,100051
2022-08-18T16:29:14.501Z,100062
2022-08-18T16:35:04.205Z,100060
2022-08-18T16:40:54.098Z,100057
2022-08-18T16:46:43.643Z,100060
2022-08-18T16:52:33.092Z,100066
2022-08-18T16:58:22.603Z,100059
2022-08-18T17:04:22.233Z,100051
2022-08-18T17:10:11.196Z,100052
2022-08-18T17:16:00.760Z,100051
2022-08-18T17:21:50.277Z,100042
2022-08-18T17:27:41.302Z,100038
2022-08-18T17:33:38.456Z,100022
2022-08-18T17:39:27.577Z,100018
2022-08-18T17:45:25.079Z,100008
2022-08-18T17:51:14.106Z,100006
2022-08-18T17:57:03.830Z,100012
2022-08-18T18:02:53.236Z,100026
2022-08-18T18:08:42.794Z,100035
2022-08-18T18:14:32.402Z,100028
2022-08-18T18:20:22.019Z,100022
2022-08-18T18:26:12.724Z,100030
2022-08-18T18:32:01.991Z,100019
2022-08-18T18:37:52.452Z,100026
2022-08-18T18:43:42.324Z,100031
2022-08-18T18:49:31.953Z,100031
2022-08-18T18:55:21.003Z,100043
2022-08-18T19:01:10.371Z,100041
2022-08-18T19:07:00.137Z,100047
2022-08-18T19:12:48.879Z,100043
2022-08-18T19:18:37.977Z,100047
2022-08-18T19:24:31.419Z,100044
2022-08-18T19:30:20.855Z,100053
2022-08-18T19:36:28.168Z,100057
2022-08-18T19:42:21.034Z,100072
2022-08-18T19:48:17.681Z,100064
2022-08-18T19:54:08.287Z,100075
2022-08-18T20:00:06.494Z,100071
2022-08-18T20:05:57.450Z,100073
2022-08-18T20:12:22.205Z,100071
2022-08-18T20:18:13.602Z,100082
2022-08-18T20:24:05.243Z,100071
2022-08-18T20:30:01.397Z,100083
2022-08-18T20:35:52.525Z,100075
2022-08-18T20:41:44.909Z,100066
2022-08-18T20:47:35.672Z,100070
2022-08-18T20:53:34.267Z,100052
2022-08-18T20:59:24.746Z,100054
2022-08-18T21:05:29.832Z,100064
2022-08-18T21:12:31.964Z,100049
2022-08-18T21:18:21.979Z,100066
2022-08-18T21:24:13.029Z,100077
2022-08-18T21:30:03.966Z,100074
2022-08-18T21:35:54.967Z,100081
2022-08-18T21:41:48.211Z,100078
2022-08-18T21:47:39.011Z,100080
2022-08-18T21:53:31.478Z,100078
2022-08-18T21:59:21.895Z,100081
2022-08-18T22:05:13.354Z,100086
2022-08-18T22:11:06.162Z,100096
2022-08-18T22:16:57.226Z,100089
2022-08-18T22:22:48.533Z,100102
2022-08-18T22:28:39.959Z,100115
2022-08-18T22:34:31.683Z,100107
2022-08-18T22:40:25.358Z,100112
2022-08-18T22:46:26.251Z,100125
2022-08-18T22:52:16.588Z,100126
2022-08-18T22:58:13.445Z,100145
2022-08-18T23:04:18.880Z,100131
2022-08-18T23:10:18.735Z,100135
2022-08-18T23:16:36.936Z,100137
2022-08-18T23:22:32.199Z,100124
2022-08-18T23:28:42.827Z,100107
2022-08-18T23:47:16.273Z,100118
2022-08-18T23:53:28.930Z,100123
2022-08-18T23:59:34.210Z,100107
